Time;durP1;ratioP1;P1;durP2;ratioP2;P2;SDS_P1;SDS_P2;PMS_P1;PMS_P2;Temp;Humidity;BMP_temperature;BMP_pressure;BME280_temperature;BME280_humidity;BME280_pressure;Samples;Min_cycle;Max_cycle;Signal;HPM_P1;HPM_P2
2022/12/25 00:00:05;;;;;;;10.67;5.80;;;4.90;99.90;;;-141.84;96.14;18007.50;5053368;28;20236;-62
2022/12/25 00:02:33;;;;;;;13.77;5.83;;;4.90;99.90;;;-141.84;96.32;18023.75;5053371;28;20939;-63
2022/12/25 00:05:02;;;;;;;11.33;5.43;;;4.90;99.90;;;-141.84;96.08;18027.81;5053475;28;20225;-63
2022/12/25 00:07:30;;;;;;;10.90;5.23;;;5.00;99.90;;;-141.84;95.82;18056.25;5053896;28;20212;-64
2022/12/25 00:10:00;;;;;;;11.53;5.70;;;5.00;99.90;;;-141.84;95.88;18001.41;5053547;28;20224;-63
2022/12/25 00:12:28;;;;;;;14.33;5.80;;;5.10;99.90;;;-141.84;96.06;18005.47;5053430;28;20236;-63
2022/12/25 00:14:56;;;;;;;15.90;6.17;;;5.10;99.90;;;-141.84;95.62;18046.09;5053201;28;20229;-63
2022/12/25 00:17:24;;;;;;;16.63;5.67;;;5.10;99.90;;;-141.84;95.54;18042.03;5053227;28;20952;-63
2022/12/25 00:19:52;;;;;;;9.80;4.70;;;5.10;99.90;;;-141.84;95.33;18013.59;5052897;28;20239;-64
2022/12/25 00:22:21;;;;;;;11.10;5.37;;;5.00;99.90;;;-141.84;95.42;18033.91;5053731;28;20518;-64
2022/12/25 00:24:49;;;;;;;15.00;5.80;;;5.10;99.90;;;-141.84;95.16;17977.03;5052743;28;20232;-63
2022/12/25 00:27:19;;;;;;;8.67;5.00;;;5.10;99.90;;;-141.84;94.77;18054.22;5052970;28;20221;-64
2022/12/25 00:29:47;;;;;;;10.60;5.13;;;5.10;99.90;;;-141.84;94.61;18013.59;5052708;28;20236;-64
2022/12/25 00:32:15;;;;;;;12.03;5.33;;;5.10;99.90;;;-141.84;94.79;18021.72;5052869;28;20229;-64
2022/12/25 00:34:43;;;;;;;9.77;5.13;;;5.00;99.90;;;-141.84;95.13;18005.47;5052789;28;20213;-64
2022/12/25 00:37:11;;;;;;;11.50;5.10;;;5.00;99.90;;;-141.84;95.13;18011.56;5051858;28;20201;-62
2022/12/25 00:39:39;;;;;;;16.97;8.33;;;4.90;99.90;;;-141.84;95.31;18009.53;5052553;28;20253;-63
2022/12/25 00:42:18;;;;;;;11.67;6.30;;;4.80;99.90;;;-141.84;95.33;18029.84;5052809;28;20226;-62
2022/12/25 00:44:49;;;;;;;10.40;4.77;;;4.80;99.90;;;-141.84;95.51;18001.41;5052486;28;20236;-63
2022/12/25 00:47:18;;;;;;;12.37;5.10;;;4.70;99.90;;;-141.84;95.58;18001.41;5058652;28;20217;-61
2022/12/25 00:49:46;;;;;;;9.40;4.53;;;4.70;99.90;;;-141.84;95.68;17979.06;5072672;28;20224;-63
2022/12/25 00:52:15;;;;;;;9.20;4.60;;;4.70;99.90;;;-141.84;95.73;17983.13;5072678;28;20735;-61
2022/12/25 00:54:43;;;;;;;10.03;4.60;;;4.60;99.90;;;-141.84;95.72;18003.44;5066701;28;20582;-61
2022/12/25 00:57:11;;;;;;;9.97;5.07;;;4.60;99.90;;;-141.84;95.92;17981.09;5052596;28;20240;-61
2022/12/25 00:59:39;;;;;;;11.57;4.47;;;4.50;99.90;;;-141.84;96.15;17972.97;5052440;28;20225;-61
2022/12/25 01:02:24;;;;;;;10.47;4.40;;;4.50;99.90;;;-141.84;96.03;17985.16;5052169;28;20233;-61
2022/12/25 01:04:55;;;;;;;8.53;4.70;;;4.60;99.90;;;-141.84;96.24;17991.25;5052199;28;20225;-62
2022/12/25 01:07:26;;;;;;;10.47;4.97;;;4.50;99.90;;;-141.84;96.35;18011.56;5052296;28;20197;-70
2022/12/25 01:12:43;;;;;;;7.73;4.60;;;4.50;99.90;;;-141.84;96.32;18001.41;5051536;28;20273;-62
2022/12/25 01:15:13;;;;;;;8.73;4.87;;;4.50;99.90;;;-141.84;96.28;17985.16;5032322;28;20573;-62
2022/12/25 01:17:43;;;;;;;10.27;4.90;;;4.40;99.90;;;-141.84;96.32;18003.44;5032014;28;20685;-64
2022/12/25 01:20:14;;;;;;;9.73;4.60;;;4.40;99.90;;;-141.84;96.33;17942.50;5032026;28;20225;-62
2022/12/25 01:22:43;;;;;;;9.63;5.30;;;4.30;99.90;;;-141.84;96.39;17981.09;5042266;28;20747;-65
2022/12/25 01:25:12;;;;;;;11.40;5.30;;;4.40;99.90;;;-141.84;96.51;17964.84;5072147;28;20212;-63
2022/12/25 01:27:42;;;;;;;9.50;5.60;;;4.40;99.90;;;-141.84;96.45;17983.13;5060477;28;20233;-62
2022/12/25 01:30:11;;;;;;;11.30;5.73;;;4.50;99.90;;;-141.84;96.23;17985.16;5051546;28;20233;-61
2022/12/25 01:32:39;;;;;;;11.23;5.13;;;4.50;99.90;;;-141.84;95.99;17985.16;5051809;28;20309;-61
2022/12/25 01:35:10;;;;;;;10.20;5.50;;;4.50;99.90;;;-141.84;95.89;17991.25;5051519;28;20225;-62
2022/12/25 01:37:40;;;;;;;10.87;5.53;;;4.50;99.90;;;-141.84;95.92;17981.09;5051763;28;20193;-62
2022/12/25 01:40:09;;;;;;;12.53;6.07;;;4.40;99.90;;;-141.84;96.17;17964.84;5051756;28;20685;-62
2022/12/25 01:42:38;;;;;;;11.93;5.83;;;4.40;99.90;;;-141.84;96.08;17940.47;5051240;28;20300;-63
2022/12/25 01:45:34;;;;;;;10.70;6.50;;;4.40;99.90;;;-141.84;96.10;18052.19;5051450;28;20239;-63
2022/12/25 01:48:08;;;;;;;11.73;6.37;;;4.30;99.90;;;-141.84;96.22;17975.00;5051510;28;20237;-62
2022/12/25 01:50:44;;;;;;;13.93;6.37;;;4.30;99.90;;;-141.84;96.35;17922.16;5051271;28;20244;-62
2022/12/25 01:53:12;;;;;;;11.07;5.90;;;4.20;99.90;;;-141.84;96.35;17950.63;5088651;28;20340;-63
2022/12/25 01:55:44;;;;;;;12.43;5.70;;;4.10;99.90;;;-141.84;96.45;17975.00;5078037;28;20580;-62
2022/12/25 01:58:13;;;;;;;12.60;6.03;;;4.10;99.90;;;-141.84;96.48;17914.03;5071785;28;20583;-62
2022/12/25 02:00:41;;;;;;;8.27;5.83;;;4.10;99.90;;;-141.84;96.64;17938.44;5071135;28;20692;-62
2022/12/25 02:03:10;;;;;;;12.67;7.37;;;4.00;99.90;;;-141.84;96.69;17966.88;5071294;28;20737;-62
2022/12/25 02:05:40;;;;;;;23.70;17.63;;;4.00;99.90;;;-141.84;96.74;17924.22;5070797;28;20684;-63
2022/12/25 02:08:12;;;;;;;30.27;24.53;;;4.00;99.90;;;-141.84;96.69;17928.28;5071122;28;20231;-61
2022/12/25 02:10:43;;;;;;;25.93;22.20;;;4.00;99.90;;;-141.84;96.87;17922.16;5071185;28;20208;-61
2022/12/25 02:13:14;;;;;;;23.60;20.63;;;4.00;99.90;;;-141.84;96.71;17920.13;5071575;28;20204;-62
2022/12/25 02:15:55;;;;;;;26.03;20.90;;;4.00;99.90;;;-141.84;97.00;17901.84;5070201;28;20726;-63
2022/12/25 02:18:37;;;;;;;28.10;21.77;;;4.00;99.90;;;-141.84;97.12;17895.75;5070164;28;20232;-62
2022/12/25 02:21:52;;;;;;;22.27;19.90;;;4.00;99.90;;;-141.84;97.33;17893.72;5070079;28;20227;-62
2022/12/25 02:24:54;;;;;;;20.83;17.50;;;4.00;99.90;;;-141.84;97.42;17899.81;5070309;28;20246;-62
2022/12/25 02:27:54;;;;;;;23.27;14.80;;;4.00;99.90;;;-141.84;97.53;17909.97;5069440;28;20228;-62
2022/12/25 02:30:24;;;;;;;16.70;11.87;;;4.00;99.90;;;-141.84;97.72;17918.09;5070240;28;20242;-62
2022/12/25 02:35:47;;;;;;;15.73;9.77;;;4.10;99.90;;;-141.84;98.22;17928.28;5069311;28;20750;-62
2022/12/25 02:38:21;;;;;;;14.97;10.67;;;4.20;99.90;;;-141.84;98.44;17916.06;5070763;28;20228;-62
2022/12/25 02:40:55;;;;;;;19.30;10.47;;;4.40;99.90;;;-141.84;98.91;17907.94;5070676;28;20195;-61
2022/12/25 03:06:42;;;;;;;14.57;6.20;;;4.70;99.90;;;-141.84;98.47;17855.13;5050280;28;20228;-62
2022/12/25 03:12:13;;;;;;;14.63;12.00;;;4.70;99.90;;;-141.84;98.21;17899.81;5050626;28;20235;-62
2022/12/25 03:17:32;;;;;;;13.47;10.40;;;4.70;99.90;;;-141.84;98.03;17883.56;5016702;28;20243;-62
2022/12/25 03:28:20;;;;;;;10.97;5.30;;;4.60;99.90;;;-141.84;97.58;17867.31;5050843;28;20193;-62
2022/12/25 03:31:12;;;;;;;9.13;5.00;;;4.50;99.90;;;-141.84;97.50;17871.38;5050246;28;20236;-63
2022/12/25 03:37:16;;;;;;;13.83;7.87;;;4.50;99.90;;;-141.84;97.30;17907.94;5049727;28;20229;-63
2022/12/25 04:36:18;;;;;;;10.33;5.83;;;4.40;99.90;;;-141.84;96.13;17889.66;5052677;28;20232;-61
2022/12/25 04:38:46;;;;;;;9.57;5.77;;;4.40;99.90;;;-141.84;96.31;17871.38;5052743;28;20247;-63
2022/12/25 04:41:14;;;;;;;12.37;5.00;;;4.40;99.90;;;-141.84;96.58;17873.41;5052974;28;20232;-62
2022/12/25 04:43:44;;;;;;;7.17;4.80;;;4.30;99.90;;;-141.84;96.58;17863.25;5052784;28;20198;-63
2022/12/25 04:46:12;;;;;;;10.87;4.97;;;4.30;99.90;;;-141.84;96.90;17877.47;5053193;28;20707;-62
2022/12/25 04:48:40;;;;;;;12.33;5.50;;;4.30;99.90;;;-141.84;97.14;17861.22;5051246;28;20689;-62
2022/12/25 04:51:15;;;;;;;11.50;5.43;;;4.30;99.90;;;-141.84;97.51;17881.53;5054091;28;20232;-62
2022/12/25 04:53:43;;;;;;;12.53;6.00;;;4.40;99.90;;;-141.84;97.71;17849.03;5072474;28;20231;-62
2022/12/25 04:56:11;;;;;;;12.57;6.33;;;4.50;99.90;;;-141.84;98.14;17851.06;5072599;28;20232;-62
2022/12/25 04:58:40;;;;;;;10.27;5.73;;;4.60;99.90;;;-141.84;98.38;17853.09;5072189;28;20637;-61
2022/12/25 05:01:09;;;;;;;10.63;5.77;;;4.70;99.90;;;-141.84;98.52;17851.06;5072939;28;20660;-63
2022/12/25 05:03:38;;;;;;;11.83;5.57;;;4.80;99.90;;;-141.84;98.53;17855.13;5072352;28;20222;-61
2022/12/25 05:06:07;;;;;;;9.77;5.77;;;4.80;99.90;;;-141.84;98.56;17857.16;5072193;28;20234;-63
2022/12/25 05:08:36;;;;;;;13.70;5.77;;;4.80;99.90;;;-141.84;98.49;17834.81;5072377;28;20236;-62
2022/12/25 05:11:10;;;;;;;9.73;5.63;;;4.70;99.90;;;-141.84;98.41;17834.81;5072634;28;20231;-63
2022/12/25 05:13:39;;;;;;;8.20;5.10;;;4.70;99.90;;;-141.84;98.57;17877.47;5071890;28;20195;-63
2022/12/25 05:16:14;;;;;;;15.27;6.23;;;4.60;99.90;;;-141.84;98.33;17830.75;5072847;28;20208;-62
2022/12/25 05:18:43;;;;;;;12.33;5.60;;;4.60;99.90;;;-141.84;98.40;17838.88;5072214;28;20228;-62
2022/12/25 05:21:12;;;;;;;8.70;5.50;;;4.60;99.90;;;-141.84;98.32;17859.19;5072000;28;20231;-62
2022/12/25 05:23:47;;;;;;;13.83;5.43;;;4.60;99.90;;;-141.84;98.27;17834.81;5071554;28;20228;-62
2022/12/25 05:26:17;;;;;;;11.17;6.27;;;4.50;99.90;;;-141.84;98.19;17834.81;5071846;28;20232;-62
2022/12/25 05:28:45;;;;;;;13.23;5.30;;;4.40;99.90;;;-141.84;98.23;17853.09;5071653;28;20227;-62
2022/12/25 05:31:15;;;;;;;13.27;5.63;;;4.40;99.90;;;-141.84;98.22;17853.09;5072278;28;20231;-62
2022/12/25 05:33:44;;;;;;;11.03;5.37;;;4.40;99.90;;;-141.84;98.34;17826.69;5071615;28;20228;-63
2022/12/25 05:36:13;;;;;;;14.27;5.57;;;4.40;99.90;;;-141.84;98.52;17834.81;5071360;28;20232;-63
2022/12/25 05:38:41;;;;;;;12.03;5.77;;;4.50;99.90;;;-141.84;98.47;17832.78;5071708;28;20224;-62
2022/12/25 05:41:09;;;;;;;9.27;5.37;;;4.50;99.90;;;-141.84;98.53;17836.84;5071539;28;20251;-62
2022/12/25 05:43:37;;;;;;;10.70;5.63;;;4.60;99.90;;;-141.84;98.38;17822.63;5071351;28;20204;-61
2022/12/25 05:46:07;;;;;;;13.53;5.90;;;4.60;99.90;;;-141.84;98.51;17822.63;5072087;28;20219;-62
2022/12/25 05:48:38;;;;;;;11.23;5.80;;;4.60;99.90;;;-141.84;98.39;17830.75;5071420;28;20256;-61
2022/12/25 05:51:08;;;;;;;11.73;6.13;;;4.80;99.90;;;-141.84;98.23;17828.72;5071089;28;20227;-62
2022/12/25 05:53:38;;;;;;;12.60;5.90;;;4.80;99.90;;;-141.84;98.07;17853.09;5071283;28;20235;-62
2022/12/25 05:56:08;;;;;;;8.97;5.70;;;4.90;99.90;;;-141.84;98.05;17816.53;5070761;28;20247;-62
2022/12/25 05:58:40;;;;;;;12.83;6.00;;;5.00;99.90;;;-141.84;98.42;17834.81;5070928;28;20713;-61
2022/12/25 06:01:15;;;;;;;10.30;5.73;;;5.00;99.90;;;-141.84;98.25;17820.59;5071640;28;20194;-62
2022/12/25 06:03:45;;;;;;;12.73;5.93;;;5.10;99.90;;;-141.84;98.37;17867.31;5071103;28;20232;-63
2022/12/25 06:06:14;;;;;;;10.20;5.83;;;5.10;99.90;;;-141.84;98.35;17851.06;5070926;28;20225;-64
2022/12/25 06:08:43;;;;;;;11.67;5.40;;;5.20;99.90;;;-141.84;98.29;17855.13;5071092;28;20221;-62
2022/12/25 06:11:14;;;;;;;13.10;5.57;;;5.30;99.90;;;-141.84;98.14;17853.09;5070921;28;20225;-62
2022/12/25 06:13:43;;;;;;;15.43;6.00;;;5.30;99.90;;;-141.84;97.77;17847.00;5070888;28;20181;-64
2022/12/25 06:16:12;;;;;;;11.80;5.70;;;5.30;99.90;;;-141.84;97.51;17861.22;5071683;28;20217;-63
2022/12/25 06:18:50;;;;;;;12.57;5.93;;;5.30;99.90;;;-141.84;97.05;17875.44;5070976;28;20235;-63
2022/12/25 06:21:18;;;;;;;7.60;5.30;;;5.20;99.90;;;-141.84;96.85;17873.41;5070787;28;20228;-63
2022/12/25 06:23:47;;;;;;;9.20;5.50;;;5.10;99.90;;;-141.84;96.97;17834.81;5071105;28;20232;-62
2022/12/25 06:26:18;;;;;;;9.87;5.37;;;5.00;99.90;;;-141.84;96.74;17863.25;5070975;28;20317;-63
2022/12/25 06:28:46;;;;;;;9.63;4.60;;;4.90;99.90;;;-141.84;96.76;17873.41;5071025;28;20194;-62
2022/12/25 06:31:19;;;;;;;13.13;6.07;;;4.90;99.90;;;-141.84;96.87;17861.22;5071447;28;20208;-63
2022/12/25 06:33:49;;;;;;;10.73;5.80;;;4.80;99.90;;;-141.84;96.99;17867.31;5071151;28;20228;-62
2022/12/25 06:36:20;;;;;;;12.77;5.77;;;4.90;99.90;;;-141.84;96.92;17891.69;5070751;28;20224;-63
2022/12/25 06:38:49;;;;;;;12.87;5.73;;;4.90;99.90;;;-141.84;97.04;17865.28;5070946;28;20239;-62
2022/12/25 06:41:20;;;;;;;8.83;5.07;;;4.90;99.90;;;-141.84;96.86;17851.06;5070699;28;20228;-62
2022/12/25 06:43:49;;;;;;;10.80;5.43;;;4.90;99.90;;;-141.84;96.99;17849.03;5070612;28;20660;-63
2022/12/25 06:46:18;;;;;;;11.03;5.23;;;4.90;99.90;;;-141.84;97.05;17859.19;5071350;28;20199;-62
2022/12/25 06:48:48;;;;;;;10.87;5.07;;;5.00;99.90;;;-141.84;97.07;17847.00;5070664;28;20258;-62
2022/12/25 06:51:20;;;;;;;13.20;5.67;;;5.00;99.90;;;-141.84;97.17;17822.63;5070314;28;20739;-63
2022/12/25 06:53:50;;;;;;;9.90;5.43;;;5.00;99.90;;;-141.84;97.40;17836.84;5070534;28;20733;-63
2022/12/25 06:56:22;;;;;;;10.93;5.30;;;5.00;99.90;;;-141.84;97.58;17847.00;5070424;28;20244;-63
2022/12/25 06:58:53;;;;;;;11.20;6.13;;;5.00;99.90;;;-141.84;97.69;17865.28;5070589;28;20239;-61
2022/12/25 07:01:26;;;;;;;13.07;6.23;;;5.00;99.90;;;-141.84;97.77;17816.53;5071052;28;20538;-63
2022/12/25 07:03:58;;;;;;;10.97;5.90;;;5.00;99.90;;;-141.84;98.00;17842.94;5070582;28;20781;-62
2022/12/25 07:06:28;;;;;;;11.67;6.00;;;5.10;99.90;;;-141.84;98.02;17873.41;5070221;28;20232;-62
2022/12/25 07:08:57;;;;;;;13.20;6.50;;;5.20;99.90;;;-141.84;98.05;17861.22;5070758;28;20231;-62
2022/12/25 07:11:25;;;;;;;12.80;6.13;;;5.30;99.90;;;-141.84;98.10;17853.09;5070501;28;20312;-63
2022/12/25 07:13:53;;;;;;;13.47;6.07;;;5.30;99.90;;;-141.84;98.10;17867.31;5074436;28;20250;-62
2022/12/25 07:16:22;;;;;;;13.40;6.17;;;5.40;99.90;;;-141.84;97.97;17842.94;5074764;28;20688;-61
2022/12/25 07:18:50;;;;;;;13.17;6.33;;;5.50;99.90;;;-141.84;97.71;17822.63;5074359;28;20712;-63
2022/12/25 07:21:21;;;;;;;10.50;5.80;;;5.60;99.90;;;-141.84;97.79;17838.88;5074162;28;20227;-63
2022/12/25 07:23:50;;;;;;;10.97;5.77;;;5.60;99.90;;;-141.84;97.73;17840.91;5074450;28;20225;-61
2022/12/25 07:26:19;;;;;;;15.63;8.03;;;5.60;99.90;;;-141.84;97.26;17824.66;5074173;28;20723;-62
2022/12/25 07:28:47;;;;;;;11.20;6.10;;;5.60;99.90;;;-141.84;97.18;17847.00;5074289;28;20221;-63
2022/12/25 07:31:18;;;;;;;12.70;6.27;;;5.60;99.90;;;-141.84;96.94;17859.19;5074812;28;20201;-62
2022/12/25 07:33:46;;;;;;;9.10;5.30;;;5.70;99.90;;;-141.84;96.24;17871.38;5074170;28;20225;-63
2022/12/25 07:36:15;;;;;;;9.07;5.20;;;5.70;99.90;;;-141.84;95.93;17875.44;5073562;28;20225;-62
2022/12/25 07:38:44;;;;;;;10.87;6.10;;;5.70;99.90;;;-141.84;95.80;17889.66;5073937;28;20224;-62
2022/12/25 07:41:14;;;;;;;11.83;5.63;;;5.80;99.90;;;-141.84;96.12;17901.84;5073799;28;20229;-63
2022/12/25 07:43:42;;;;;;;11.13;5.20;;;5.80;99.90;;;-141.84;96.03;17895.75;5073655;28;20205;-63
2022/12/25 07:46:11;;;;;;;11.80;5.80;;;5.70;99.90;;;-141.84;95.90;17867.31;5074502;28;20196;-63
2022/12/25 07:48:39;;;;;;;8.40;5.10;;;5.80;99.90;;;-141.84;95.76;17885.59;5073541;28;20224;-63
2022/12/25 07:51:13;;;;;;;10.83;5.37;;;5.80;99.90;;;-141.84;95.36;17871.38;5073363;28;20230;-62
2022/12/25 07:53:42;;;;;;;12.97;5.70;;;5.80;99.90;;;-141.84;95.36;17889.66;5073630;28;20763;-62
2022/12/25 07:56:15;;;;;;;11.13;5.67;;;5.90;99.90;;;-141.84;95.29;17889.66;5073433;28;20233;-63
2022/12/25 07:58:44;;;;;;;15.00;5.57;;;6.00;99.90;;;-141.84;94.95;17901.84;5073684;28;20188;-62
2022/12/25 08:01:16;;;;;;;10.33;4.90;;;6.10;99.90;;;-141.84;94.71;17909.97;5073912;28;20687;-62
2022/12/25 08:03:49;;;;;;;9.00;5.23;;;6.30;99.90;;;-141.84;94.26;17916.06;5073628;28;20227;-61
2022/12/25 08:06:19;;;;;;;10.47;4.57;;;6.30;99.90;;;-141.84;94.47;17912.00;5072977;28;20583;-62
2022/12/25 08:08:47;;;;;;;8.77;5.60;;;6.40;99.90;;;-141.84;93.84;17962.81;5073430;28;20239;-62
2022/12/25 08:11:17;;;;;;;10.33;5.00;;;6.40;99.90;;;-141.84;92.81;17964.84;5073472;28;20229;-62
2022/12/25 08:13:45;;;;;;;12.30;5.23;;;6.50;99.90;;;-141.84;92.12;17999.38;5073187;28;20197;-62
2022/12/25 08:16:13;;;;;;;10.77;4.93;;;6.60;99.90;;;-141.84;92.39;18003.44;5073539;28;20756;-61
2022/12/25 08:18:41;;;;;;;10.97;4.87;;;6.60;99.90;;;-141.84;92.82;17987.19;5073027;28;20286;-62
2022/12/25 08:21:13;;;;;;;7.33;4.90;;;6.70;99.90;;;-141.84;92.64;17985.16;5073124;28;20232;-63
2022/12/25 08:23:45;;;;;;;9.70;5.53;;;6.80;99.90;;;-141.84;93.27;17954.69;5073042;28;20719;-63
2022/12/25 08:26:18;;;;;;;12.43;5.97;;;6.90;99.90;;;-141.84;93.72;17999.38;5073528;28;20221;-63
2022/12/25 08:28:46;;;;;;;10.60;6.13;;;6.90;99.90;;;-141.84;93.76;17997.34;5073090;28;20216;-62
2022/12/25 08:31:18;;;;;;;11.00;6.17;;;7.00;99.90;;;-141.84;93.88;17981.09;5073864;28;20211;-62
2022/12/25 08:33:48;;;;;;;11.43;5.00;;;7.20;99.90;;;-141.84;94.21;18011.56;5072860;28;20255;-63
2022/12/25 08:36:17;;;;;;;9.17;5.83;;;7.30;99.90;;;-141.84;93.03;17968.91;5072681;28;20228;-62
2022/12/25 08:38:46;;;;;;;9.40;5.63;;;7.40;99.90;;;-141.84;93.18;18001.41;5073051;28;20216;-63
2022/12/25 08:41:16;;;;;;;12.67;6.10;;;7.50;99.90;;;-141.84;93.46;17975.00;5073042;28;20232;-62
2022/12/25 08:43:45;;;;;;;9.07;5.13;;;7.60;99.90;;;-141.84;94.23;18007.50;5072802;28;20185;-63
2022/12/25 08:46:13;;;;;;;11.47;5.77;;;7.70;99.90;;;-141.84;93.95;18044.06;5073275;28;20205;-63
2022/12/25 08:48:42;;;;;;;13.57;5.47;;;7.90;99.90;;;-141.84;94.22;17999.38;5072610;28;20600;-63
2022/12/25 08:51:14;;;;;;;11.87;5.20;;;7.90;99.90;;;-141.84;89.95;18021.72;5072421;28;20220;-63
2022/12/25 08:53:43;;;;;;;10.00;5.00;;;7.90;99.90;;;-141.84;88.13;18105.00;5072473;28;20232;-62
2022/12/25 08:56:12;;;;;;;7.90;5.20;;;8.00;99.90;;;-141.84;88.88;18133.44;5072583;28;20580;-62
2022/12/25 08:58:42;;;;;;;9.30;4.80;;;8.20;99.90;;;-141.84;88.95;18109.06;5072473;28;20204;-64
2022/12/25 09:01:11;;;;;;;9.57;4.50;;;8.30;99.90;;;-141.84;88.36;18135.47;5073199;28;20267;-64
2022/12/25 09:03:40;;;;;;;9.17;4.60;;;8.50;99.90;;;-141.84;86.75;18147.66;5072533;28;20224;-64
2022/12/25 09:06:12;;;;;;;10.20;4.40;;;8.50;99.90;;;-141.84;87.01;18149.69;5072316;28;20232;-64
2022/12/25 09:08:41;;;;;;;8.47;3.77;;;8.60;99.90;;;-141.84;86.64;18184.22;5072072;28;20224;-64
2022/12/25 09:11:17;;;;;;;10.00;4.13;;;8.70;99.90;;;-141.84;86.30;18188.28;5072498;28;20251;-65
2022/12/25 09:13:48;;;;;;;7.87;4.20;;;8.80;99.90;;;-141.84;86.87;18226.88;5072098;28;20205;-65
2022/12/25 09:16:20;;;;;;;11.80;4.53;;;8.90;99.90;;;-141.84;85.31;18184.22;5072527;28;20208;-63
2022/12/25 09:18:49;;;;;;;9.27;4.43;;;8.90;99.90;;;-141.84;84.94;18214.69;5072037;28;20232;-64
2022/12/25 09:21:19;;;;;;;7.93;4.50;;;9.00;99.90;;;-141.84;84.28;18237.06;5071917;28;20423;-64
2022/12/25 09:23:47;;;;;;;8.60;4.40;;;9.10;99.90;;;-141.84;82.55;18253.31;5071788;28;20718;-64
2022/12/25 09:26:18;;;;;;;9.80;4.13;;;9.10;99.90;;;-141.84;81.92;18265.50;5072241;28;20221;-65
2022/12/25 09:28:48;;;;;;;7.97;3.57;;;9.10;99.90;;;-141.84;80.17;18287.84;5071802;28;20212;-64
2022/12/25 09:31:21;;;;;;;6.27;3.70;;;9.10;99.90;;;-141.84;79.47;18356.91;5072187;28;20613;-65
2022/12/25 09:33:50;;;;;;;5.87;4.17;;;9.10;99.90;;;-141.84;80.12;18320.34;5071617;28;20263;-65
2022/12/25 09:36:20;;;;;;;7.50;4.20;;;9.10;99.90;;;-141.84;78.97;18332.53;5070876;28;20229;-64
2022/12/25 09:38:48;;;;;;;7.20;3.97;;;9.10;99.90;;;-141.84;78.82;18375.19;5071530;28;20228;-64
2022/12/25 09:41:26;;;;;;;7.27;3.70;;;9.20;99.90;;;-141.84;79.31;18354.88;5071826;28;20259;-65
2022/12/25 09:44:03;;;;;;;8.90;3.83;;;9.20;99.90;;;-141.84;79.38;18387.38;5071686;28;20227;-64
2022/12/25 09:46:41;;;;;;;6.43;3.80;;;9.10;99.90;;;-141.84;78.39;18354.88;5071751;28;20181;-64
2022/12/25 09:49:20;;;;;;;8.00;4.10;;;9.00;99.90;;;-141.84;79.68;18348.78;5051977;28;20532;-64
2022/12/25 09:51:56;;;;;;;7.77;4.70;;;8.90;99.90;;;-141.84;79.17;18360.97;5051041;28;20240;-64
2022/12/25 09:54:39;;;;;;;7.90;4.17;;;8.90;99.90;;;-141.84;78.74;18387.38;5053813;28;20224;-63
2022/12/25 09:57:11;;;;;;;7.20;4.00;;;9.00;99.90;;;-141.84;78.12;18419.88;5071226;28;20228;-65
2022/12/25 09:59:43;;;;;;;10.53;4.43;;;9.00;99.90;;;-141.84;78.34;18385.34;5071320;28;20231;-64
2022/12/25 10:02:42;;;;;;;7.57;4.10;;;9.10;99.90;;;-141.84;78.08;18397.53;5071265;28;20704;-64
2022/12/25 10:05:47;;;;;;;12.03;4.50;;;9.20;99.90;;;-141.84;78.26;18403.63;5071101;28;20234;-64
2022/12/25 10:08:32;;;;;;;7.60;4.80;;;9.30;99.90;;;-141.84;77.95;18432.09;5071157;28;20248;-65
2022/12/25 10:11:15;;;;;;;7.90;4.33;;;9.40;99.90;;;-141.84;77.11;18448.34;5071013;28;20738;-64
2022/12/25 10:14:07;;;;;;;6.87;3.60;;;9.60;99.90;;;-141.84;76.86;18464.59;5070931;28;20193;-65
2022/12/25 10:16:53;;;;;;;9.60;4.43;;;9.70;99.90;;;-141.84;76.12;18501.16;5071851;28;20529;-64
2022/12/25 10:19:37;;;;;;;8.37;4.30;;;9.70;99.90;;;-141.84;76.15;18458.50;5074424;28;20199;-64
2022/12/25 10:22:16;;;;;;;8.07;4.20;;;9.70;99.90;;;-141.84;77.18;18452.41;5071420;28;20223;-63
2022/12/25 10:24:49;;;;;;;8.07;4.57;;;9.60;99.90;;;-141.84;77.08;18454.44;5070428;28;20219;-64
2022/12/25 10:27:25;;;;;;;9.03;4.27;;;9.60;99.90;;;-141.84;77.55;18452.41;5070837;28;20304;-64
2022/12/25 10:29:54;;;;;;;7.07;4.10;;;9.60;99.90;;;-141.84;77.99;18430.06;5070784;28;20598;-64
2022/12/25 10:32:23;;;;;;;7.23;3.80;;;9.60;99.90;;;-141.84;77.53;18456.47;5070785;28;20236;-64
2022/12/25 10:34:52;;;;;;;7.30;4.07;;;9.60;99.90;;;-141.84;77.15;18456.47;5070782;28;20228;-64
2022/12/25 10:37:20;;;;;;;6.57;3.83;;;9.60;99.90;;;-141.84;77.07;18456.47;5070833;28;20700;-65
2022/12/25 10:39:48;;;;;;;8.60;4.40;;;9.70;99.90;;;-141.84;77.30;18484.91;5070623;28;20223;-64
2022/12/25 10:42:37;;;;;;;7.17;4.47;;;9.70;99.90;;;-141.84;77.27;18464.59;5070387;28;20229;-65
2022/12/25 10:45:08;;;;;;;8.33;4.50;;;9.80;99.90;;;-141.84;76.19;18521.47;5069102;28;20224;-64
2022/12/25 10:47:41;;;;;;;6.00;3.50;;;9.90;99.90;;;-141.84;76.06;18501.16;5071309;28;20219;-64
2022/12/25 10:50:18;;;;;;;8.07;3.97;;;10.10;99.90;;;-141.84;75.27;18519.44;5074291;28;20657;-60
2022/12/25 10:53:03;;;;;;;9.43;4.33;;;10.10;99.90;;;-141.84;75.96;18525.53;5074567;28;20231;-61
2022/12/25 10:55:32;;;;;;;6.63;4.13;;;10.10;99.90;;;-141.84;76.14;18521.47;5074672;28;20487;-61
2022/12/25 10:58:01;;;;;;;6.73;4.27;;;10.10;99.90;;;-141.84;75.87;18497.09;5075119;28;20217;-60
2022/12/25 11:00:32;;;;;;;5.53;3.97;;;10.00;99.90;;;-141.84;76.69;18499.13;5074532;28;20232;-64
2022/12/25 11:03:02;;;;;;;6.80;4.30;;;9.90;99.90;;;-141.84;76.05;18515.38;5074630;28;20228;-64
2022/12/25 11:05:32;;;;;;;9.17;4.10;;;10.00;99.90;;;-141.84;75.65;18533.66;5074572;28;20228;-64
2022/12/25 11:08:03;;;;;;;6.60;4.10;;;10.00;99.90;;;-141.84;75.54;18529.59;5074573;28;20224;-64
2022/12/25 11:10:35;;;;;;;7.67;4.73;;;10.10;99.90;;;-141.84;76.40;18517.41;5074239;28;20205;-62
2022/12/25 11:13:07;;;;;;;6.87;4.10;;;10.00;99.90;;;-141.84;76.09;18503.19;5074742;28;20185;-63
2022/12/25 11:15:40;;;;;;;6.70;4.17;;;10.10;99.90;;;-141.84;76.33;18543.81;5074189;28;20228;-63
2022/12/25 11:18:21;;;;;;;7.57;4.60;;;10.10;99.90;;;-141.84;76.24;18537.72;5074051;28;20232;-63
2022/12/25 11:20:52;;;;;;;9.67;4.70;;;10.00;99.90;;;-141.84;76.47;18505.22;5073771;28;20232;-63
2022/12/25 11:23:22;;;;;;;7.87;4.10;;;10.00;99.90;;;-141.84;76.91;18515.38;5074082;28;20229;-64
2022/12/25 11:25:59;;;;;;;8.83;4.40;;;10.00;99.90;;;-141.84;77.09;18519.44;5074092;28;20224;-62
2022/12/25 11:28:31;;;;;;;8.13;4.40;;;10.00;99.90;;;-141.84;76.88;18505.22;5074588;28;20203;-66
2022/12/25 11:31:05;;;;;;;4.63;3.70;;;10.00;99.90;;;-141.84;76.97;18525.53;5074025;28;20209;-64
2022/12/25 11:33:40;;;;;;;6.87;3.97;;;10.00;99.90;;;-141.84;77.71;18497.09;5073910;28;20249;-63
2022/12/25 11:36:19;;;;;;;8.70;4.20;;;9.90;99.90;;;-141.84;78.04;18480.84;5073786;28;20259;-64
2022/12/25 11:38:47;;;;;;;5.60;3.90;;;9.90;99.90;;;-141.84;77.53;18493.03;5073994;28;20228;-64
2022/12/25 11:41:22;;;;;;;7.47;4.47;;;10.00;99.90;;;-141.84;77.31;18560.06;5073918;28;20240;-61
2022/12/25 11:43:56;;;;;;;8.37;4.03;;;10.00;99.90;;;-141.84;77.50;18505.22;5073896;28;20192;-63
2022/12/25 11:46:30;;;;;;;7.97;4.53;;;10.00;99.90;;;-141.84;76.76;18515.38;5074569;28;20200;-62
2022/12/25 11:49:07;;;;;;;5.80;4.30;;;10.00;99.90;;;-141.84;76.32;18596.66;5073704;28;20267;-63
2022/12/25 11:51:41;;;;;;;7.33;4.57;;;10.00;99.90;;;-141.84;76.29;18564.13;5073320;28;20273;-61
2022/12/25 11:54:22;;;;;;;8.37;4.70;;;10.00;99.90;;;-141.84;77.02;18539.75;5073377;28;20224;-62
2022/12/25 11:56:52;;;;;;;10.27;4.90;;;10.00;99.90;;;-141.84;76.98;18533.66;5073422;28;20233;-65
2022/12/25 11:59:28;;;;;;;8.53;4.77;;;9.90;99.90;;;-141.84;77.30;18517.41;5073009;28;20239;-62
2022/12/25 12:02:03;;;;;;;7.37;4.37;;;9.90;99.90;;;-141.84;77.63;18509.28;5073495;28;20818;-63
2022/12/25 12:04:41;;;;;;;6.87;4.53;;;9.90;99.90;;;-141.84;77.49;18495.06;5073746;28;20216;-62
2022/12/25 12:07:24;;;;;;;9.90;5.30;;;9.90;99.90;;;-141.84;77.66;18511.31;5073890;28;20246;-62
2022/12/25 12:10:05;;;;;;;8.90;4.73;;;10.00;99.90;;;-141.84;77.18;18517.41;5073461;28;20319;-65